Time;durP1;ratioP1;P1;durP2;ratioP2;P2;SDS_P1;SDS_P2;PMS_P1;PMS_P2;Temp;Humidity;BMP_temperature;BMP_pressure;BME280_temperature;BME280_humidity;BME280_pressure;Samples;Min_cycle;Max_cycle;Signal;HPM_P1;HPM_P2
2020/12/18 00:00:31;;;;;;;23.07;12.00;;;10.20;78.80;;;;;;4999606;28;20121;-63
2020/12/18 00:03:00;;;;;;;18.87;10.53;;;10.20;79.30;;;;;;4997711;28;20056;-63
2020/12/18 00:05:25;;;;;;;19.07;11.20;;;10.20;79.90;;;;;;5003870;28;20042;-63
2020/12/18 00:08:11;;;;;;;20.37;10.70;;;10.20;80.20;;;;;;4992376;28;20560;-63
2020/12/18 00:10:40;;;;;;;15.80;10.30;;;10.20;79.40;;;;;;5002936;28;20042;-63
2020/12/18 00:13:25;;;;;;;20.47;11.17;;;10.20;80.00;;;;;;4999401;28;20077;-63
2020/12/18 00:16:11;;;;;;;13.07;10.37;;;10.20;80.00;;;;;;5003329;28;20128;-63
2020/12/18 00:18:37;;;;;;;17.40;9.83;;;10.20;79.10;;;;;;5013255;28;20046;-63
2020/12/18 00:21:23;;;;;;;18.70;9.67;;;10.20;79.80;;;;;;5000100;28;20728;-63
2020/12/18 00:23:49;;;;;;;18.17;10.17;;;10.10;79.40;;;;;;4996934;28;20046;-63
2020/12/18 00:26:35;;;;;;;20.27;11.00;;;10.00;79.20;;;;;;4995545;28;20498;-63
2020/12/18 00:29:01;;;;;;;19.80;10.67;;;10.00;80.80;;;;;;4994732;28;20049;-63
2020/12/18 00:31:47;;;;;;;14.77;9.90;;;10.00;80.70;;;;;;4999183;28;20458;-63
2020/12/18 00:34:33;;;;;;;17.07;9.77;;;10.00;81.30;;;;;;4996565;28;20082;-63
2020/12/18 00:36:58;;;;;;;16.27;9.90;;;10.00;79.40;;;;;;5001181;28;20174;-63
2020/12/18 00:39:24;;;;;;;15.20;9.23;;;10.00;80.30;;;;;;4998303;28;20050;-63
2020/12/18 00:41:56;;;;;;;14.83;8.73;;;10.00;80.20;;;;;;5002183;28;20097;-63
2020/12/18 00:44:41;;;;;;;16.40;9.80;;;10.00;79.90;;;;;;5003419;28;20127;-63
2020/12/18 00:47:07;;;;;;;21.50;9.93;;;10.00;79.90;;;;;;5003682;28;20045;-63
2020/12/18 00:49:53;;;;;;;18.00;9.13;;;9.90;80.20;;;;;;5001083;28;20054;-63
2020/12/18 00:52:19;;;;;;;16.13;10.10;;;9.80;80.60;;;;;;5001039;28;20045;-63
2020/12/18 00:55:04;;;;;;;17.33;9.90;;;9.80;81.00;;;;;;4997962;28;20038;-63
2020/12/18 00:57:30;;;;;;;16.27;9.40;;;9.80;81.90;;;;;;5003802;28;20049;-63
2020/12/18 00:59:56;;;;;;;18.00;9.50;;;9.90;81.10;;;;;;4998867;28;20049;-63
2020/12/18 01:02:22;;;;;;;16.93;9.20;;;9.90;80.50;;;;;;5001314;28;20033;-63
2020/12/18 01:04:48;;;;;;;17.63;9.27;;;9.80;80.40;;;;;;5011121;28;20449;-63
2020/12/18 01:07:13;;;;;;;14.27;9.13;;;9.80;80.50;;;;;;5010270;28;20470;-63
2020/12/18 01:09:39;;;;;;;20.57;9.83;;;9.80;81.20;;;;;;5007857;28;20560;-63
2020/12/18 01:12:05;;;;;;;20.07;8.73;;;9.80;80.90;;;;;;5007655;28;20050;-63
2020/12/18 01:14:31;;;;;;;16.30;8.73;;;9.80;80.10;;;;;;5008974;28;20074;-63
2020/12/18 01:16:56;;;;;;;13.80;8.50;;;9.80;80.90;;;;;;5005626;28;20030;-63
2020/12/18 01:19:22;;;;;;;16.97;9.33;;;9.80;80.10;;;;;;5005391;28;20041;-63
2020/12/18 01:22:08;;;;;;;17.47;8.63;;;9.80;81.40;;;;;;5004496;28;20088;-63
2020/12/18 01:24:33;;;;;;;20.03;9.33;;;9.80;80.90;;;;;;5005958;28;20061;-63
2020/12/18 01:27:19;;;;;;;18.73;8.87;;;9.80;80.80;;;;;;5003979;28;20474;-63
2020/12/18 01:29:45;;;;;;;13.97;8.47;;;9.70;80.30;;;;;;5008451;28;20062;-63
2020/12/18 01:32:30;;;;;;;14.10;8.20;;;9.70;80.70;;;;;;5005184;28;20042;-63
2020/12/18 01:34:56;;;;;;;10.43;8.03;;;9.80;81.40;;;;;;5007336;28;20100;-64
2020/12/18 01:37:22;;;;;;;14.20;9.40;;;9.90;80.70;;;;;;5006217;28;20046;-63
2020/12/18 01:40:07;;;;;;;18.60;8.90;;;9.90;81.00;;;;;;5005057;28;20049;-63
2020/12/18 01:42:33;;;;;;;13.57;8.87;;;9.80;80.10;;;;;;5007795;28;20073;-63
2020/12/18 01:44:59;;;;;;;16.07;8.40;;;9.80;80.60;;;;;;5009683;28;20034;-63
2020/12/18 01:47:28;;;;;;;18.97;8.83;;;9.80;80.10;;;;;;5008164;28;20409;-63
2020/12/18 01:50:14;;;;;;;20.77;9.50;;;9.80;80.70;;;;;;4992701;28;20050;-62
2020/12/18 01:52:40;;;;;;;12.97;7.23;;;9.70;81.30;;;;;;5004403;28;20509;-63
2020/12/18 01:55:06;;;;;;;15.30;7.67;;;9.70;80.50;;;;;;5004478;28;20046;-61
2020/12/18 01:57:32;;;;;;;18.23;7.67;;;9.70;81.00;;;;;;5001558;28;20186;-64
2020/12/18 01:59:59;;;;;;;14.57;8.27;;;9.70;81.40;;;;;;5020460;28;20044;-63
2020/12/18 02:02:25;;;;;;;13.17;7.67;;;9.60;81.30;;;;;;5007476;28;20046;-61
2020/12/18 02:04:50;;;;;;;15.27;7.40;;;9.70;81.90;;;;;;5019507;28;20787;-63
2020/12/18 02:07:19;;;;;;;16.63;7.23;;;9.60;81.60;;;;;;5006811;28;20107;-64
2020/12/18 02:09:45;;;;;;;21.50;7.80;;;9.80;82.00;;;;;;5004865;28;20053;-62
2020/12/18 02:12:11;;;;;;;17.47;7.60;;;9.80;81.10;;;;;;5006249;28;20033;-62
2020/12/18 02:14:36;;;;;;;12.93;7.63;;;9.60;81.50;;;;;;5006174;28;20041;-63
2020/12/18 02:17:02;;;;;;;15.37;7.20;;;9.60;81.20;;;;;;5002891;28;20081;-63
2020/12/18 02:19:52;;;;;;;13.50;7.87;;;9.60;81.20;;;;;;5006084;28;20049;-63
2020/12/18 02:22:19;;;;;;;16.07;8.17;;;9.60;81.40;;;;;;5002490;28;20038;-63
2020/12/18 02:25:09;;;;;;;13.07;6.73;;;9.60;81.60;;;;;;4993797;28;20117;-63
2020/12/18 02:27:35;;;;;;;19.03;7.50;;;9.60;81.40;;;;;;5003654;28;20045;-63
2020/12/18 02:30:01;;;;;;;11.60;7.57;;;9.60;81.10;;;;;;5006407;28;20034;-63
2020/12/18 02:32:27;;;;;;;19.97;7.97;;;9.60;81.30;;;;;;5000490;28;20398;-63
2020/12/18 02:34:52;;;;;;;17.03;7.53;;;9.60;81.20;;;;;;5003999;28;20038;-63
2020/12/18 02:37:18;;;;;;;12.53;7.23;;;9.70;81.90;;;;;;5006624;28;20416;-63
2020/12/18 02:39:44;;;;;;;16.57;8.60;;;9.70;82.20;;;;;;5006162;28;20449;-63
2020/12/18 02:42:10;;;;;;;19.97;8.80;;;9.70;81.30;;;;;;5007282;28;20120;-63
2020/12/18 02:44:35;;;;;;;12.97;8.30;;;9.70;80.90;;;;;;5004244;28;20037;-63
2020/12/18 02:47:01;;;;;;;16.50;8.83;;;9.70;81.20;;;;;;5007238;28;20187;-62
2020/12/18 02:49:27;;;;;;;18.47;9.73;;;9.70;80.90;;;;;;5004090;28;20061;-63
2020/12/18 02:51:53;;;;;;;18.47;8.30;;;9.60;81.10;;;;;;5004018;28;20132;-62
2020/12/18 02:54:19;;;;;;;17.27;7.90;;;9.70;82.10;;;;;;5004152;28;20119;-63
2020/12/18 02:56:45;;;;;;;15.93;8.03;;;9.70;80.60;;;;;;5008128;28;20410;-63
2020/12/18 02:59:10;;;;;;;15.30;8.53;;;9.60;80.50;;;;;;5007630;28;20095;-62
2020/12/18 03:01:36;;;;;;;16.90;8.57;;;9.60;80.50;;;;;;5006006;28;20473;-62
2020/12/18 03:04:02;;;;;;;18.70;8.47;;;9.50;81.80;;;;;;5004914;28;20061;-63
2020/12/18 03:06:28;;;;;;;15.10;8.63;;;9.50;80.80;;;;;;5003687;28;20034;-63
2020/12/18 03:09:13;;;;;;;15.90;8.10;;;9.50;80.90;;;;;;5005075;28;20062;-63
2020/12/18 03:11:40;;;;;;;14.90;8.30;;;9.50;82.60;;;;;;5006463;28;20497;-63
2020/12/18 03:14:06;;;;;;;16.47;8.23;;;9.50;80.90;;;;;;5000232;28;20129;-63
2020/12/18 03:16:38;;;;;;;26.70;10.60;;;9.40;81.40;;;;;;5007486;28;20513;-63
2020/12/18 03:19:04;;;;;;;15.97;9.53;;;9.40;81.70;;;;;;5007127;28;21175;-63
2020/12/18 03:21:30;;;;;;;20.23;9.10;;;9.40;81.50;;;;;;5005666;28;20293;-63
2020/12/18 03:24:16;;;;;;;17.00;9.70;;;9.40;81.70;;;;;;5001940;28;20049;-64
2020/12/18 03:26:41;;;;;;;15.73;8.87;;;9.50;81.70;;;;;;5007084;28;20034;-63
2020/12/18 03:29:27;;;;;;;17.60;9.20;;;9.50;82.00;;;;;;5000806;28;20401;-63
2020/12/18 03:31:53;;;;;;;17.53;8.70;;;9.60;81.40;;;;;;5003101;28;20305;-63
2020/12/18 03:34:18;;;;;;;18.30;9.40;;;9.60;81.70;;;;;;5002868;28;20037;-63
2020/12/18 03:36:44;;;;;;;18.70;9.23;;;9.60;80.90;;;;;;5005058;28;20436;-64
2020/12/18 03:39:10;;;;;;;17.17;9.87;;;9.60;80.90;;;;;;5003408;28;20041;-63
2020/12/18 03:41:36;;;;;;;20.83;9.63;;;9.50;81.40;;;;;;5002310;28;20050;-63
2020/12/18 03:44:02;;;;;;;19.23;9.20;;;9.50;81.80;;;;;;5002740;28;20061;-63
2020/12/18 03:46:27;;;;;;;20.50;10.43;;;9.40;81.10;;;;;;5004724;28;20061;-63
2020/12/18 03:48:53;;;;;;;16.83;9.37;;;9.40;82.30;;;;;;5000669;28;20054;-63
2020/12/18 03:51:39;;;;;;;21.13;10.53;;;9.40;81.00;;;;;;5003449;28;20064;-63
2020/12/18 03:54:05;;;;;;;14.03;9.30;;;9.30;81.60;;;;;;5002884;28;20053;-63
2020/12/18 03:56:51;;;;;;;15.47;10.10;;;9.30;81.50;;;;;;5002328;28;20128;-63
2020/12/18 03:59:16;;;;;;;18.30;9.93;;;9.20;81.50;;;;;;5003065;28;20121;-63
2020/12/18 04:02:02;;;;;;;18.10;10.10;;;9.20;83.40;;;;;;5004390;28;20060;-63
2020/12/18 04:04:28;;;;;;;23.60;10.47;;;9.20;82.00;;;;;;5005124;28;20034;-64
2020/12/18 04:07:14;;;;;;;17.40;10.90;;;9.20;82.20;;;;;;4990873;28;20152;-64
2020/12/18 04:09:40;;;;;;;13.13;10.37;;;9.20;82.20;;;;;;5002838;28;20578;-64
2020/12/18 04:12:06;;;;;;;19.17;11.70;;;9.20;84.00;;;;;;5017300;28;20037;-64
2020/12/18 04:14:32;;;;;;;19.73;10.70;;;9.20;81.90;;;;;;5002271;28;20030;-64
2020/12/18 04:16:58;;;;;;;14.50;12.03;;;9.20;82.50;;;;;;5006044;28;20490;-64
2020/12/18 04:19:23;;;;;;;19.80;11.17;;;9.20;82.20;;;;;;5015058;28;20037;-64
2020/12/18 04:22:09;;;;;;;21.23;11.90;;;9.30;82.40;;;;;;5004293;28;20065;-64
2020/12/18 04:24:35;;;;;;;17.97;10.97;;;9.20;82.40;;;;;;5000745;28;20034;-64
2020/12/18 04:27:01;;;;;;;17.20;10.60;;;9.30;82.60;;;;;;5003285;28;20038;-64
2020/12/18 04:29:26;;;;;;;16.37;11.10;;;9.20;82.80;;;;;;5004471;28;20049;-64
2020/12/18 04:31:52;;;;;;;17.27;11.77;;;9.20;83.10;;;;;;5002558;28;20177;-64
2020/12/18 04:34:18;;;;;;;19.07;11.77;;;9.20;81.90;;;;;;5002057;28;20077;-64
2020/12/18 04:36:43;;;;;;;20.37;13.30;;;9.10;83.40;;;;;;5004784;28;20168;-63
2020/12/18 04:39:29;;;;;;;19.07;11.17;;;9.10;83.50;;;;;;5005148;28;20125;-64
2020/12/18 04:41:55;;;;;;;16.17;11.33;;;9.20;82.90;;;;;;5006166;28;20096;-64
2020/12/18 04:44:21;;;;;;;19.03;11.03;;;9.10;83.00;;;;;;5004634;28;20050;-63
2020/12/18 04:46:48;;;;;;;21.43;11.50;;;9.20;82.60;;;;;;5005906;28;20101;-63
2020/12/18 04:49:14;;;;;;;15.53;11.80;;;9.10;83.00;;;;;;5008002;28;20421;-64
2020/12/18 04:51:42;;;;;;;18.60;10.97;;;9.20;83.50;;;;;;5007761;28;20042;-64
2020/12/18 04:54:10;;;;;;;19.57;11.03;;;9.20;83.80;;;;;;5004183;28;20065;-64
2020/12/18 04:56:37;;;;;;;22.17;11.20;;;9.20;82.40;;;;;;5006412;28;20454;-64
2020/12/18 04:59:02;;;;;;;20.47;11.23;;;9.20;82.40;;;;;;5006036;28;20037;-64
2020/12/18 05:01:28;;;;;;;21.70;10.70;;;9.20;83.10;;;;;;5004182;28;20050;-64
2020/12/18 05:03:54;;;;;;;19.97;11.53;;;9.20;83.60;;;;;;5006443;28;20040;-63
2020/12/18 05:06:19;;;;;;;22.00;11.53;;;9.20;83.50;;;;;;4993891;28;20552;-63
2020/12/18 05:08:45;;;;;;;16.23;11.73;;;9.20;82.80;;;;;;5005581;28;20516;-63
2020/12/18 05:11:24;;;;;;;17.03;11.50;;;9.20;82.90;;;;;;5005813;28;20038;-63
2020/12/18 05:14:10;;;;;;;20.20;11.63;;;9.20;82.70;;;;;;5006144;28;20042;-63
2020/12/18 05:16:55;;;;;;;20.57;12.30;;;9.10;83.60;;;;;;5007372;28;20073;-63
2020/12/18 05:19:21;;;;;;;18.07;12.40;;;9.20;83.70;;;;;;5007223;28;20552;-63
2020/12/18 05:21:49;;;;;;;18.37;12.30;;;9.20;84.10;;;;;;5021690;28;20042;-63
2020/12/18 05:24:15;;;;;;;22.83;14.13;;;9.20;83.40;;;;;;5007676;28;20049;-63
2020/12/18 05:27:00;;;;;;;17.53;11.77;;;9.30;85.50;;;;;;5008484;28;20463;-63
2020/12/18 05:29:46;;;;;;;23.63;12.87;;;9.30;83.10;;;;;;4993730;28;20366;-63
2020/12/18 05:32:13;;;;;;;22.00;13.33;;;9.30;82.60;;;;;;5003489;28;20045;-63
2020/12/18 05:34:39;;;;;;;21.40;13.90;;;9.30;83.90;;;;;;5005463;28;20457;-63
2020/12/18 05:37:05;;;;;;;23.33;13.03;;;9.40;84.00;;;;;;5004875;28;20042;-63
2020/12/18 05:39:33;;;;;;;22.00;12.57;;;9.40;83.30;;;;;;5007325;28;20041;-63
2020/12/18 05:42:20;;;;;;;20.50;13.33;;;9.50;83.50;;;;;;4992258;28;20077;-63
2020/12/18 05:44:46;;;;;;;23.20;13.13;;;9.50;82.40;;;;;;5007930;28;20046;-63
2020/12/18 05:47:11;;;;;;;20.70;12.27;;;9.40;82.60;;;;;;5008504;28;20383;-63
2020/12/18 05:49:39;;;;;;;19.13;13.20;;;9.40;82.60;;;;;;5004289;28;20471;-62
2020/12/18 05:52:06;;;;;;;17.93;11.17;;;9.40;83.40;;;;;;5007552;28;20095;-63
2020/12/18 05:54:34;;;;;;;26.13;13.23;;;9.40;84.10;;;;;;5008119;28;20038;-62
2020/12/18 05:57:07;;;;;;;23.80;12.47;;;9.40;83.30;;;;;;5007593;28;20072;-63
2020/12/18 05:59:33;;;;;;;20.55;11.65;;;9.40;83.30;;;;;;5004111;28;20078;-62
2020/12/18 06:02:18;;;;;;;17.67;11.73;;;9.40;83.30;;;;;;4990944;28;20561;-63
2020/12/18 06:05:04;;;;;;;19.63;11.70;;;9.40;83.80;;;;;;5002708;28;20325;-64
2020/12/18 06:07:34;;;;;;;17.37;11.37;;;9.40;83.40;;;;;;5021713;28;20026;-64
2020/12/18 06:10:00;;;;;;;20.67;11.17;;;9.40;83.70;;;;;;5002786;28;20468;-64
2020/12/18 06:12:26;;;;;;;16.23;10.97;;;9.50;83.60;;;;;;5002945;28;20042;-63
2020/12/18 06:14:51;;;;;;;21.30;10.73;;;9.50;83.00;;;;;;4972039;28;20426;-63
2020/12/18 06:17:17;;;;;;;15.00;10.50;;;9.50;83.40;;;;;;5005317;28;21185;-64
2020/12/18 06:20:03;;;;;;;22.13;11.33;;;9.60;82.60;;;;;;4991136;28;20323;-64
2020/12/18 06:22:29;;;;;;;21.63;10.73;;;9.60;82.30;;;;;;5008268;28;20411;-62
2020/12/18 06:24:54;;;;;;;19.83;10.90;;;9.60;83.10;;;;;;5007716;28;20038;-63
2020/12/18 06:27:20;;;;;;;25.40;10.57;;;9.50;82.50;;;;;;5004651;28;20038;-64
2020/12/18 06:29:46;;;;;;;21.07;11.27;;;9.50;83.40;;;;;;5005315;28;20037;-64
2020/12/18 06:32:32;;;;;;;14.93;10.30;;;9.50;83.20;;;;;;5001129;28;20149;-63
2020/12/18 06:35:35;;;;;;;16.77;9.73;;;9.50;82.90;;;;;;5002558;28;20072;-64
2020/12/18 06:38:13;;;;;;;15.70;9.60;;;9.50;82.90;;;;;;5001655;28;20038;-64
2020/12/18 06:40:59;;;;;;;15.67;9.47;;;9.50;82.90;;;;;;5002800;28;20086;-63
2020/12/18 06:43:35;;;;;;;16.53;9.20;;;9.40;82.60;;;;;;5004626;28;20054;-63
2020/12/18 06:46:05;;;;;;;23.90;9.57;;;9.40;83.30;;;;;;5006424;28;20378;-64
2020/12/18 06:48:51;;;;;;;17.87;9.67;;;9.40;83.40;;;;;;5004781;28;20498;-64
2020/12/18 06:51:29;;;;;;;14.37;8.47;;;9.50;84.00;;;;;;5003612;28;20035;-65
2020/12/18 06:54:15;;;;;;;16.90;9.67;;;9.50;82.70;;;;;;5018294;28;20053;-64
2020/12/18 06:56:41;;;;;;;17.73;8.67;;;9.50;83.90;;;;;;5005397;28;20054;-64
2020/12/18 06:59:27;;;;;;;19.50;9.80;;;9.50;83.30;;;;;;5004786;28;20037;-65
2020/12/18 07:02:35;;;;;;;17.93;13.13;;;9.60;82.30;;;;;;5001738;28;20443;-64
2020/12/18 07:05:36;;;;;;;17.70;10.43;;;9.50;82.60;;;;;;5002966;28;20410;-64
2020/12/18 07:08:22;;;;;;;16.33;9.67;;;9.50;82.40;;;;;;5003483;28;20049;-64
2020/12/18 07:10:47;;;;;;;27.53;16.23;;;9.50;83.20;;;;;;5007103;28;20057;-63
2020/12/18 07:13:33;;;;;;;26.10;18.40;;;9.50;82.90;;;;;;5001208;28;20046;-63
2020/12/18 07:16:09;;;;;;;16.30;9.90;;;9.50;83.00;;;;;;5018266;28;20137;-63
2020/12/18 07:18:39;;;;;;;15.17;8.70;;;9.50;83.00;;;;;;5002720;28;20038;-63
2020/12/18 07:21:07;;;;;;;15.77;8.17;;;9.50;82.40;;;;;;5018012;28;20038;-63
2020/12/18 07:23:53;;;;;;;16.97;10.27;;;9.50;82.90;;;;;;5006585;28;20061;-63
2020/12/18 07:26:19;;;;;;;16.63;12.33;;;9.40;82.30;;;;;;5004270;28;20393;-63
2020/12/18 07:28:45;;;;;;;14.40;7.87;;;9.40;82.20;;;;;;5005399;28;20116;-63
2020/12/18 07:31:17;;;;;;;20.27;10.93;;;9.40;82.40;;;;;;5002433;28;20120;-63
2020/12/18 07:33:44;;;;;;;16.97;8.77;;;9.30;82.90;;;;;;5003478;28;20485;-63
2020/12/18 07:36:10;;;;;;;18.00;8.33;;;9.30;82.60;;;;;;4999493;28;20467;-63
2020/12/18 07:38:57;;;;;;;15.03;6.97;;;9.30;84.20;;;;;;4989893;28;20489;-63
2020/12/18 07:41:29;;;;;;;16.93;7.27;;;9.30;82.60;;;;;;5001549;28;20048;-63
2020/12/18 07:44:15;;;;;;;11.10;6.27;;;9.40;82.90;;;;;;5001314;28;20049;-62
2020/12/18 07:47:00;;;;;;;15.90;9.77;;;9.40;82.80;;;;;;5003111;28;20037;-63
2020/12/18 07:49:27;;;;;;;15.50;8.37;;;9.40;82.10;;;;;;5003103;28;20481;-63
2020/12/18 07:51:54;;;;;;;17.43;9.37;;;9.40;82.40;;;;;;4996723;28;20050;-63
2020/12/18 07:54:20;;;;;;;18.10;8.47;;;9.30;82.20;;;;;;4987100;28;20030;-64
2020/12/18 07:56:47;;;;;;;17.03;8.37;;;9.30;82.80;;;;;;4988709;28;20050;-64
2020/12/18 07:59:32;;;;;;;15.30;7.33;;;9.30;83.60;;;;;;4979380;28;20069;-63
2020/12/18 08:02:22;;;;;;;18.43;6.60;;;9.30;82.70;;;;;;4983531;28;20056;-64
2020/12/18 08:05:08;;;;;;;14.20;6.77;;;9.20;83.50;;;;;;4984924;28;20371;-64
2020/12/18 08:07:34;;;;;;;14.63;6.07;;;9.30;84.10;;;;;;4999935;28;20126;-64
2020/12/18 08:10:03;;;;;;;10.97;5.40;;;9.40;83.60;;;;;;4995723;28;20121;-64
2020/12/18 08:12:50;;;;;;;12.80;5.90;;;9.40;81.80;;;;;;4996448;28;20046;-65
2020/12/18 08:15:15;;;;;;;12.27;6.40;;;9.50;82.50;;;;;;4996483;28;20116;-64
2020/12/18 08:18:01;;;;;;;13.37;7.63;;;9.50;83.60;;;;;;4998270;28;20622;-64
2020/12/18 08:20:27;;;;;;;15.97;6.90;;;9.60;82.30;;;;;;4998420;28;20100;-64
2020/12/18 08:22:52;;;;;;;11.37;6.83;;;9.60;82.70;;;;;;4998314;28;20484;-64
2020/12/18 08:25:18;;;;;;;12.67;6.07;;;9.60;81.70;;;;;;4996856;28;20121;-63
2020/12/18 08:27:51;;;;;;;13.60;6.53;;;9.60;81.80;;;;;;4997964;28;20030;-63
2020/12/18 08:30:17;;;;;;;11.80;6.13;;;9.70;84.80;;;;;;4996490;28;20053;-63
2020/12/18 08:33:02;;;;;;;14.17;5.70;;;9.80;83.60;;;;;;4994980;28;20074;-61
2020/12/18 08:35:28;;;;;;;17.23;6.67;;;9.90;82.90;;;;;;4996385;28;20115;-61
2020/12/18 08:38:14;;;;;;;14.77;6.30;;;9.80;80.40;;;;;;4997822;28;20421;-63
2020/12/18 08:40:59;;;;;;;12.33;5.47;;;9.80;81.00;;;;;;4982259;28;20088;-63
2020/12/18 08:43:25;;;;;;;8.83;3.73;;;9.80;81.10;;;;;;4993169;28;20484;-59
2020/12/18 08:45:51;;;;;;;9.63;4.83;;;10.10;88.90;;;;;;4996362;28;20046;-60
2020/12/18 08:48:20;;;;;;;9.73;4.37;;;11.00;90.00;;;;;;4998886;28;20453;-60
2020/12/18 08:50:47;;;;;;;8.13;3.70;;;11.80;85.80;;;;;;4998968;28;20168;-59
2020/12/18 08:53:34;;;;;;;8.00;3.60;;;12.80;81.50;;;;;;4982107;28;20046;-59
2020/12/18 08:56:06;;;;;;;8.25;2.25;;;13.20;81.30;;;;;;4996366;28;20053;-59
2020/12/18 08:58:33;;;;;;;7.17;2.87;;;13.80;80.70;;;;;;4999541;28;20046;-58
2020/12/18 09:01:00;;;;;;;6.65;2.50;;;14.30;76.80;;;;;;5013431;28;20041;-59
2020/12/18 09:03:26;;;;;;;10.52;2.63;;;14.60;74.10;;;;;;4996070;28;20040;-59
2020/12/18 09:05:52;;;;;;;11.50;3.65;;;15.00;76.10;;;;;;4997014;28;20038;-60
2020/12/18 09:08:20;;;;;;;7.97;2.42;;;15.40;71.90;;;;;;4997497;28;20116;-60
2020/12/18 09:10:54;;;;;;;4.05;2.05;;;15.50;71.80;;;;;;4996581;28;20462;-60
2020/12/18 09:13:25;;;;;;;10.13;3.58;;;15.60;73.30;;;;;;4995301;28;20132;-60
2020/12/18 09:15:52;;;;;;;3.78;1.90;;;15.80;68.40;;;;;;4988312;28;20045;-59
2020/12/18 09:18:24;;;;;;;5.93;2.00;;;15.90;69.20;;;;;;4995001;28;20042;-57
2020/12/18 09:21:14;;;;;;;6.53;1.40;;;16.20;71.40;;;;;;4995066;28;20045;-57
2020/12/18 09:23:41;;;;;;;3.92;1.30;;;16.40;72.50;;;;;;5011939;28;20100;-58
2020/12/18 09:26:28;;;;;;;6.30;1.70;;;16.70;70.70;;;;;;4996972;28;20725;-58
2020/12/18 09:28:54;;;;;;;4.50;1.20;;;16.80;69.40;;;;;;4997864;28;20041;-60
2020/12/18 09:31:19;;;;;;;10.70;3.95;;;16.70;69.30;;;;;;4999198;28;20056;-56
2020/12/18 09:33:45;;;;;;;5.80;2.60;;;16.90;68.00;;;;;;5001257;28;20048;-58
2020/12/18 09:36:12;;;;;;;5.80;1.98;;;17.00;66.10;;;;;;4995381;28;20140;-57
2020/12/18 09:38:37;;;;;;;8.90;2.50;;;16.90;66.30;;;;;;4995775;28;20046;-54
2020/12/18 09:41:05;;;;;;;10.60;2.63;;;17.00;65.40;;;;;;4995035;28;20501;-60
2020/12/18 09:43:31;;;;;;;5.18;1.67;;;17.20;68.20;;;;;;4993418;28;20542;-60
2020/12/18 09:46:18;;;;;;;5.30;1.95;;;17.40;67.30;;;;;;4999589;28;20041;-60
2020/12/18 09:48:47;;;;;;;5.90;1.30;;;17.60;63.90;;;;;;5013637;28;20062;-60
2020/12/18 09:51:13;;;;;;;7.05;2.47;;;17.80;67.00;;;;;;5000617;28;20129;-60
2020/12/18 09:53:39;;;;;;;10.75;1.80;;;17.90;65.60;;;;;;4999227;28;20033;-61
2020/12/18 09:56:24;;;;;;;4.25;1.27;;;17.90;64.40;;;;;;5002288;28;20101;-60
2020/12/18 09:58:51;;;;;;;7.50;1.30;;;18.00;65.30;;;;;;5003221;28;20034;-59
2020/12/18 10:01:17;;;;;;;4.97;1.23;;;18.20;64.50;;;;;;4998818;28;20038;-59
2020/12/18 10:04:02;;;;;;;6.43;1.25;;;18.30;64.10;;;;;;4993944;28;20046;-59
2020/12/18 10:06:28;;;;;;;7.68;2.08;;;18.50;63.30;;;;;;4998771;28;20045;-58
2020/12/18 10:08:55;;;;;;;4.20;1.00;;;18.60;63.00;;;;;;4996821;28;21935;-59
2020/12/18 10:11:26;;;;;;;4.47;1.10;;;18.60;62.60;;;;;;4999393;28;20038;-57
2020/12/18 10:13:52;;;;;;;5.53;1.25;;;18.70;61.90;;;;;;4995858;28;20041;-58
2020/12/18 10:16:18;;;;;;;7.05;1.52;;;18.80;61.50;;;;;;4979111;28;20139;-56
2020/12/18 10:18:43;;;;;;;5.60;1.10;;;18.80;62.20;;;;;;4990060;28;20042;-58
2020/12/18 10:21:09;;;;;;;2.83;1.70;;;18.80;65.10;;;;;;4993367;28;20050;-56
2020/12/18 10:23:35;;;;;;;8.48;1.40;;;18.80;63.60;;;;;;4992580;28;20042;-58
2020/12/18 10:26:20;;;;;;;8.23;1.60;;;18.90;64.90;;;;;;4994307;28;20045;-53
2020/12/18 10:29:06;;;;;;;7.50;3.00;;;18.90;64.20;;;;;;4991153;28;21040;-59
2020/12/18 10:31:56;;;;;;;11.65;3.00;;;19.10;63.90;;;;;;4988703;28;20072;-60
2020/12/18 10:34:42;;;;;;;12.30;2.72;;;19.10;61.80;;;;;;4980269;28;20460;-59
2020/12/18 10:37:07;;;;;;;14.27;3.97;;;19.20;61.30;;;;;;4990224;28;20037;-59
2020/12/18 10:39:54;;;;;;;12.27;3.50;;;19.10;57.90;;;;;;4988117;28;20809;-60
2020/12/18 10:42:20;;;;;;;16.58;4.40;;;19.10;62.00;;;;;;4988901;28;20505;-59
2020/12/18 10:44:46;;;;;;;9.55;3.65;;;19.20;60.70;;;;;;4988651;28;20044;-59
2020/12/18 10:47:11;;;;;;;9.73;3.88;;;19.40;60.00;;;;;;4991098;28;20033;-59
2020/12/18 10:49:37;;;;;;;15.30;4.03;;;19.20;57.70;;;;;;4991359;28;20080;-59
2020/12/18 10:52:03;;;;;;;12.75;3.72;;;19.20;60.50;;;;;;4982048;28;20048;-60
2020/12/18 10:54:29;;;;;;;15.77;4.25;;;19.30;60.30;;;;;;4984741;28;20038;-61
2020/12/18 10:56:57;;;;;;;12.10;4.60;;;19.50;60.30;;;;;;4984549;28;20052;-58
2020/12/18 10:59:26;;;;;;;19.98;4.55;;;19.50;58.00;;;;;;4987323;28;20049;-60
2020/12/18 11:02:12;;;;;;;17.60;5.40;;;19.60;59.50;;;;;;4984370;28;20927;-59
2020/12/18 11:04:57;;;;;;;12.45;4.10;;;19.30;57.70;;;;;;4980795;28;20050;-59
2020/12/18 11:07:43;;;;;;;25.55;3.65;;;19.20;58.20;;;;;;5000361;28;20108;-59
2020/12/18 11:10:09;;;;;;;13.13;3.47;;;19.30;58.40;;;;;;4991280;28;20667;-60
2020/12/18 11:12:34;;;;;;;8.25;3.03;;;19.40;61.00;;;;;;4993587;28;20461;-58
2020/12/18 11:15:20;;;;;;;10.68;4.22;;;19.40;59.20;;;;;;4988666;28;20038;-59
2020/12/18 11:17:47;;;;;;;13.40;3.30;;;19.40;57.30;;;;;;5009785;28;20070;-57
2020/12/18 11:20:12;;;;;;;7.72;3.03;;;19.00;56.10;;;;;;4999005;28;20088;-67
2020/12/18 11:22:38;;;;;;;17.48;3.88;;;18.80;57.30;;;;;;4994799;28;20544;-61
2020/12/18 11:25:24;;;;;;;18.80;3.80;;;18.60;57.40;;;;;;4996730;28;20042;-62
2020/12/18 11:27:49;;;;;;;8.75;3.25;;;18.60;59.10;;;;;;4997404;28;20053;-60
2020/12/18 11:30:35;;;;;;;13.73;3.70;;;18.50;56.20;;;;;;4994412;28;20049;-58
2020/12/18 11:33:01;;;;;;;20.38;4.32;;;18.30;57.90;;;;;;4995661;28;20037;-59
2020/12/18 11:35:47;;;;;;;9.75;3.33;;;18.30;58.00;;;;;;4981344;28;20046;-59
2020/12/18 11:38:12;;;;;;;9.18;3.53;;;18.30;56.50;;;;;;4996990;28;20037;-57
2020/12/18 11:40:38;;;;;;;13.32;3.83;;;18.10;57.50;;;;;;4997470;28;20046;-58
2020/12/18 11:43:04;;;;;;;11.15;3.70;;;18.00;56.60;;;;;;4994064;28;20042;-59
2020/12/18 11:45:30;;;;;;;7.18;3.40;;;18.10;57.40;;;;;;4995817;28;20041;-59
2020/12/18 11:48:16;;;;;;;6.15;2.88;;;18.00;56.40;;;;;;4981096;28;20453;-59
2020/12/18 11:50:41;;;;;;;9.18;3.50;;;17.80;56.60;;;;;;4993588;28;20075;-59
2020/12/18 11:53:09;;;;;;;9.50;3.58;;;17.90;57.90;;;;;;4993106;28;20045;-59
2020/12/18 11:55:35;;;;;;;6.05;3.35;;;18.10;55.50;;;;;;4997207;28;20104;-59
2020/12/18 11:58:01;;;;;;;8.40;3.25;;;18.00;57.50;;;;;;4993953;28;20038;-59
2020/12/18 12:00:31;;;;;;;5.38;2.38;;;17.90;56.80;;;;;;4993521;28;20049;-59
2020/12/18 12:02:56;;;;;;;8.82;3.20;;;18.00;57.20;;;;;;4992630;28;20038;-60
2020/12/18 12:05:23;;;;;;;5.70;2.67;;;17.90;56.30;;;;;;4994896;28;20037;-58
2020/12/18 12:07:48;;;;;;;4.38;2.17;;;17.90;57.30;;;;;;5009324;28;20131;-59
2020/12/18 12:10:15;;;;;;;10.52;2.67;;;18.10;58.40;;;;;;4997340;28;20124;-59
2020/12/18 12:12:41;;;;;;;7.88;2.78;;;18.40;57.70;;;;;;4996317;28;20045;-60
2020/12/18 12:15:07;;;;;;;13.98;3.60;;;18.50;57.20;;;;;;4996458;28;20050;-60
2020/12/18 12:17:40;;;;;;;14.32;2.35;;;18.50;56.80;;;;;;4995672;28;20050;-59
2020/12/18 12:20:06;;;;;;;10.20;2.60;;;18.60;59.00;;;;;;4994654;28;20116;-58
2020/12/18 12:22:32;;;;;;;13.88;2.95;;;18.70;58.10;;;;;;5006280;28;20041;-60
2020/12/18 12:24:58;;;;;;;12.13;2.72;;;18.90;57.80;;;;;;4995912;28;20045;-59
2020/12/18 12:27:24;;;;;;;11.90;3.45;;;19.00;55.30;;;;;;4997515;28;20121;-60
2020/12/18 12:30:11;;;;;;;10.27;2.60;;;19.00;57.20;;;;;;5000971;28;20066;-66
2020/12/18 12:32:37;;;;;;;10.50;2.42;;;;;;;;;;4999617;28;20629;-62
2020/12/18 12:35:04;;;;;;;7.38;2.35;;;18.10;52.10;;;;;;5002978;28;20100;-61
2020/12/18 12:37:49;;;;;;;14.95;3.70;;;17.10;55.10;;;;;;4987003;28;20049;-63
2020/12/18 12:40:15;;;;;;;9.18;2.97;;;15.90;59.80;;;;;;5003575;28;20044;-63
2020/12/18 12:42:41;;;;;;;11.57;3.85;;;15.90;60.50;;;;;;5019563;28;20042;-62
2020/12/18 12:45:27;;;;;;;8.63;2.83;;;15.60;62.40;;;;;;5002161;28;20140;-64
2020/12/18 12:48:12;;;;;;;10.68;3.45;;;15.60;61.60;;;;;;4984303;28;20053;-58
2020/12/18 12:50:38;;;;;;;11.70;3.45;;;14.90;65.20;;;;;;5000407;28;20042;-58
2020/12/18 12:53:04;;;;;;;9.57;3.47;;;14.40;64.50;;;;;;4994377;28;20109;-61
2020/12/18 12:55:29;;;;;;;12.68;3.55;;;13.40;69.60;;;;;;4994679;28;20108;-62
2020/12/18 12:57:55;;;;;;;11.93;3.90;;;13.40;70.50;;;;;;4972546;28;20050;-62
2020/12/18 13:00:21;;;;;;;8.48;3.53;;;13.00;70.50;;;;;;4994525;28;20084;-62
2020/12/18 13:02:50;;;;;;;6.85;3.35;;;12.80;70.50;;;;;;4989111;28;20077;-62
2020/12/18 13:05:35;;;;;;;10.57;3.30;;;12.50;76.00;;;;;;4997586;28;20061;-63